sensor_id;sensor_type;location;lat;lon;timestamp;temperature;humidity
19829;DHT22;10075;50.924;4.396;2022-10-23T00:00:14;15.50;99.90
19829;DHT22;10075;50.924;4.396;2022-10-23T00:02:42;15.50;99.90
19829;DHT22;10075;50.924;4.396;2022-10-23T00:05:10;15.50;99.90
19829;DHT22;10075;50.924;4.396;2022-10-23T00:07:37;15.60;99.90
19829;DHT22;10075;50.924;4.396;2022-10-23T00:10:05;15.70;99.90
19829;DHT22;10075;50.924;4.396;2022-10-23T00:12:32;15.80;99.90
19829;DHT22;10075;50.924;4.396;2022-10-23T00:14:59;15.80;99.90
19829;DHT22;10075;50.924;4.396;2022-10-23T00:17:26;15.80;99.90
19829;DHT22;10075;50.924;4.396;2022-10-23T00:19:54;15.90;99.90
19829;DHT22;10075;50.924;4.396;2022-10-23T00:22:21;15.90;99.90
19829;DHT22;10075;50.924;4.396;2022-10-23T00:24:48;15.80;99.90
19829;DHT22;10075;50.924;4.396;2022-10-23T00:27:15;15.80;99.90
19829;DHT22;10075;50.924;4.396;2022-10-23T00:29:43;15.80;99.90
19829;DHT22;10075;50.924;4.396;2022-10-23T00:32:10;15.80;99.90
19829;DHT22;10075;50.924;4.396;2022-10-23T00:34:37;15.80;99.90
19829;DHT22;10075;50.924;4.396;2022-10-23T00:37:05;15.70;99.90
19829;DHT22;10075;50.924;4.396;2022-10-23T00:39:35;15.70;99.90
19829;DHT22;10075;50.924;4.396;2022-10-23T00:42:02;15.60;99.90
19829;DHT22;10075;50.924;4.396;2022-10-23T00:47:33;15.70;99.90
19829;DHT22;10075;50.924;4.396;2022-10-23T00:50:00;15.80;99.90
19829;DHT22;10075;50.924;4.396;2022-10-23T00:52:29;15.90;99.90
19829;DHT22;10075;50.924;4.396;2022-10-23T00:54:56;15.80;99.90
19829;DHT22;10075;50.924;4.396;2022-10-23T00:57:24;15.80;99.90
19829;DHT22;10075;50.924;4.396;2022-10-23T00:59:51;15.80;99.90
19829;DHT22;10075;50.924;4.396;2022-10-23T01:02:18;15.70;99.90
19829;DHT22;10075;50.924;4.396;2022-10-23T01:04:45;15.70;99.90
19829;DHT22;10075;50.924;4.396;2022-10-23T01:07:16;15.60;99.90
19829;DHT22;10075;50.924;4.396;2022-10-23T01:09:52;15.60;99.90
19829;DHT22;10075;50.924;4.396;2022-10-23T01:12:32;15.60;99.90
19829;DHT22;10075;50.924;4.396;2022-10-23T01:15:06;15.60;99.90
19829;DHT22;10075;50.924;4.396;2022-10-23T01:17:36;15.70;99.90
19829;DHT22;10075;50.924;4.396;2022-10-23T01:20:22;15.70;99.90
19829;DHT22;10075;50.924;4.396;2022-10-23T01:23:04;15.70;99.90
19829;DHT22;10075;50.924;4.396;2022-10-23T01:25:52;15.70;99.90
19829;DHT22;10075;50.924;4.396;2022-10-23T01:28:25;15.70;99.90
19829;DHT22;10075;50.924;4.396;2022-10-23T01:30:58;15.60;99.90
19829;DHT22;10075;50.924;4.396;2022-10-23T01:33:28;15.70;99.90
19829;DHT22;10075;50.924;4.396;2022-10-23T01:36:00;15.80;99.90
19829;DHT22;10075;50.924;4.396;2022-10-23T01:38:36;15.80;99.90
19829;DHT22;10075;50.924;4.396;2022-10-23T01:41:10;15.80;99.90
19829;DHT22;10075;50.924;4.396;2022-10-23T01:43:43;15.80;99.90
19829;DHT22;10075;50.924;4.396;2022-10-23T01:46:14;15.80;99.90
19829;DHT22;10075;50.924;4.396;2022-10-23T01:48:46;15.80;99.90
19829;DHT22;10075;50.924;4.396;2022-10-23T01:51:17;15.80;99.90
19829;DHT22;10075;50.924;4.396;2022-10-23T01:53:47;15.80;99.90
19829;DHT22;10075;50.924;4.396;2022-10-23T01:56:18;15.80;99.90
19829;DHT22;10075;50.924;4.396;2022-10-23T01:58:49;15.80;99.90
19829;DHT22;10075;50.924;4.396;2022-10-23T02:01:19;15.70;99.90
19829;DHT22;10075;50.924;4.396;2022-10-23T02:03:48;15.70;99.90
19829;DHT22;10075;50.924;4.396;2022-10-23T02:06:15;15.70;99.90
19829;DHT22;10075;50.924;4.396;2022-10-23T02:08:42;15.70;99.90
19829;DHT22;10075;50.924;4.396;2022-10-23T02:11:13;15.70;99.90
19829;DHT22;10075;50.924;4.396;2022-10-23T02:13:45;15.70;99.90
19829;DHT22;10075;50.924;4.396;2022-10-23T02:16:22;15.80;99.90
19829;DHT22;10075;50.924;4.396;2022-10-23T02:18:55;15.80;99.90
19829;DHT22;10075;50.924;4.396;2022-10-23T02:21:29;15.80;99.90
19829;DHT22;10075;50.924;4.396;2022-10-23T02:24:02;15.80;99.90
19829;DHT22;10075;50.924;4.396;2022-10-23T02:26:34;15.80;99.90
19829;DHT22;10075;50.924;4.396;2022-10-23T02:29:07;15.70;99.90
19829;DHT22;10075;50.924;4.396;2022-10-23T02:31:36;15.70;99.90
19829;DHT22;10075;50.924;4.396;2022-10-23T02:34:03;15.50;99.90
19829;DHT22;10075;50.924;4.396;2022-10-23T02:36:31;15.50;99.90
19829;DHT22;10075;50.924;4.396;2022-10-23T02:38:58;15.40;99.90
19829;DHT22;10075;50.924;4.396;2022-10-23T02:41:32;15.50;99.90
19829;DHT22;10075;50.924;4.396;2022-10-23T02:44:09;15.40;99.90
19829;DHT22;10075;50.924;4.396;2022-10-23T02:46:49;15.50;99.90
19829;DHT22;10075;50.924;4.396;2022-10-23T02:49:22;15.50;99.90
19829;DHT22;10075;50.924;4.396;2022-10-23T02:51:56;15.60;99.90
19829;DHT22;10075;50.924;4.396;2022-10-23T02:54:40;15.50;99.90
19829;DHT22;10075;50.924;4.396;2022-10-23T02:57:16;15.50;99.90
19829;DHT22;10075;50.924;4.396;2022-10-23T02:59:47;15.50;99.90
19829;DHT22;10075;50.924;4.396;2022-10-23T03:02:22;15.50;99.90
19829;DHT22;10075;50.924;4.396;2022-10-23T03:04:52;15.50;99.90
19829;DHT22;10075;50.924;4.396;2022-10-23T03:07:19;15.60;99.90
19829;DHT22;10075;50.924;4.396;2022-10-23T03:09:47;15.60;99.90
19829;DHT22;10075;50.924;4.396;2022-10-23T03:12:14;15.60;99.90
19829;DHT22;10075;50.924;4.396;2022-10-23T03:14:41;15.70;99.90
19829;DHT22;10075;50.924;4.396;2022-10-23T03:17:09;15.70;99.90
19829;DHT22;10075;50.924;4.396;2022-10-23T03:19:37;15.70;99.90
19829;DHT22;10075;50.924;4.396;2022-10-23T03:22:04;15.70;99.90
19829;DHT22;10075;50.924;4.396;2022-10-23T03:24:31;15.70;99.90
19829;DHT22;10075;50.924;4.396;2022-10-23T03:26:58;15.70;99.90
19829;DHT22;10075;50.924;4.396;2022-10-23T03:29:25;15.80;99.90
19829;DHT22;10075;50.924;4.396;2022-10-23T03:31:52;15.80;99.90
19829;DHT22;10075;50.924;4.396;2022-10-23T03:34:20;15.70;99.90
19829;DHT22;10075;50.924;4.396;2022-10-23T03:36:48;15.70;99.90
19829;DHT22;10075;50.924;4.396;2022-10-23T03:39:16;15.70;99.90
19829;DHT22;10075;50.924;4.396;2022-10-23T03:41:43;15.70;99.90
19829;DHT22;10075;50.924;4.396;2022-10-23T03:44:10;15.70;99.90
19829;DHT22;10075;50.924;4.396;2022-10-23T03:46:37;15.80;99.90
19829;DHT22;10075;50.924;4.396;2022-10-23T03:49:04;15.80;99.90
19829;DHT22;10075;50.924;4.396;2022-10-23T03:51:31;15.80;99.90
19829;DHT22;10075;50.924;4.396;2022-10-23T03:53:59;15.90;99.90
19829;DHT22;10075;50.924;4.396;2022-10-23T03:56:26;15.90;99.90
19829;DHT22;10075;50.924;4.396;2022-10-23T03:58:53;15.90;99.90
19829;DHT22;10075;50.924;4.396;2022-10-23T04:01:20;15.80;99.90
19829;DHT22;10075;50.924;4.396;2022-10-23T04:03:47;15.80;99.90
19829;DHT22;10075;50.924;4.396;2022-10-23T04:06:14;15.80;99.90
19829;DHT22;10075;50.924;4.396;2022-10-23T04:08:41;15.80;99.90
19829;DHT22;10075;50.924;4.396;2022-10-23T04:11:10;15.80;99.90
19829;DHT22;10075;50.924;4.396;2022-10-23T04:13:37;15.70;99.90
19829;DHT22;10075;50.924;4.396;2022-10-23T04:16:04;15.60;99.90
19829;DHT22;10075;50.924;4.396;2022-10-23T04:18:31;15.60;99.90
19829;DHT22;10075;50.924;4.396;2022-10-23T04:20:58;15.50;99.90
19829;DHT22;10075;50.924;4.396;2022-10-23T04:23:25;15.50;99.90
19829;DHT22;10075;50.924;4.396;2022-10-23T04:25:55;15.50;99.90
19829;DHT22;10075;50.924;4.396;2022-10-23T04:28:24;15.50;99.90
19829;DHT22;10075;50.924;4.396;2022-10-23T04:30:51;15.40;99.90
19829;DHT22;10075;50.924;4.396;2022-10-23T04:33:18;15.40;99.90
19829;DHT22;10075;50.924;4.396;2022-10-23T04:35:45;15.40;99.90
19829;DHT22;10075;50.924;4.396;2022-10-23T04:38:12;15.30;99.90
19829;DHT22;10075;50.924;4.396;2022-10-23T04:40:42;15.30;99.90
19829;DHT22;10075;50.924;4.396;2022-10-23T04:43:09;15.30;99.90
19829;DHT22;10075;50.924;4.396;2022-10-23T04:45:38;15.30;99.90
19829;DHT22;10075;50.924;4.396;2022-10-23T04:48:05;15.30;99.90
19829;DHT22;10075;50.924;4.396;2022-10-23T04:50:32;15.30;99.90
19829;DHT22;10075;50.924;4.396;2022-10-23T04:52:59;15.40;99.90
19829;DHT22;10075;50.924;4.396;2022-10-23T04:55:26;15.40;99.90
19829;DHT22;10075;50.924;4.396;2022-10-23T04:57:53;15.40;99.90
19829;DHT22;10075;50.924;4.396;2022-10-23T05:00:20;15.40;99.90
19829;DHT22;10075;50.924;4.396;2022-10-23T05:02:49;15.40;99.90
19829;DHT22;10075;50.924;4.396;2022-10-23T05:05:16;15.40;99.90
19829;DHT22;10075;50.924;4.396;2022-10-23T05:07:43;15.30;99.90
19829;DHT22;10075;50.924;4.396;2022-10-23T05:10:10;15.30;99.90
19829;DHT22;10075;50.924;4.396;2022-10-23T05:12:37;15.30;99.90
19829;DHT22;10075;50.924;4.396;2022-10-23T05:15:05;15.30;99.90
19829;DHT22;10075;50.924;4.396;2022-10-23T05:17:34;15.30;99.90
19829;DHT22;10075;50.924;4.396;2022-10-23T05:20:06;15.30;99.90
19829;DHT22;10075;50.924;4.396;2022-10-23T05:22:38;15.30;99.90
19829;DHT22;10075;50.924;4.396;2022-10-23T05:25:07;15.30;99.90
19829;DHT22;10075;50.924;4.396;2022-10-23T05:27:34;15.30;99.90
19829;DHT22;10075;50.924;4.396;2022-10-23T05:30:02;15.30;99.90
19829;DHT22;10075;50.924;4.396;2022-10-23T05:32:30;15.40;99.90
19829;DHT22;10075;50.924;4.396;2022-10-23T05:34:58;15.40;99.90
19829;DHT22;10075;50.924;4.396;2022-10-23T05:37:28;15.40;99.90
19829;DHT22;10075;50.924;4.396;2022-10-23T05:39:56;15.40;99.90
19829;DHT22;10075;50.924;4.396;2022-10-23T05:42:23;15.40;99.90
19829;DHT22;10075;50.924;4.396;2022-10-23T05:44:50;15.50;99.90
19829;DHT22;10075;50.924;4.396;2022-10-23T05:47:17;15.60;99.90
19829;DHT22;10075;50.924;4.396;2022-10-23T05:49:44;15.50;99.90
19829;DHT22;10075;50.924;4.396;2022-10-23T05:52:11;15.60;99.90
19829;DHT22;10075;50.924;4.396;2022-10-23T05:54:39;15.60;99.90
19829;DHT22;10075;50.924;4.396;2022-10-23T05:57:06;15.50;99.90
19829;DHT22;10075;50.924;4.396;2022-10-23T05:59:33;15.60;99.90
19829;DHT22;10075;50.924;4.396;2022-10-23T06:02:00;15.50;99.90
19829;DHT22;10075;50.924;4.396;2022-10-23T06:04:27;15.50;99.90
19829;DHT22;10075;50.924;4.396;2022-10-23T06:06:54;15.50;99.90
19829;DHT22;10075;50.924;4.396;2022-10-23T06:09:21;15.40;99.90
19829;DHT22;10075;50.924;4.396;2022-10-23T06:11:49;15.40;99.90
19829;DHT22;10075;50.924;4.396;2022-10-23T06:14:16;15.50;99.90
19829;DHT22;10075;50.924;4.396;2022-10-23T06:16:43;15.60;99.90
19829;DHT22;10075;50.924;4.396;2022-10-23T06:19:10;15.60;99.90
19829;DHT22;10075;50.924;4.396;2022-10-23T06:21:37;15.60;99.90
19829;DHT22;10075;50.924;4.396;2022-10-23T06:24:05;15.50;99.90
19829;DHT22;10075;50.924;4.396;2022-10-23T06:26:33;15.50;99.90
19829;DHT22;10075;50.924;4.396;2022-10-23T06:29:01;15.50;99.90
19829;DHT22;10075;50.924;4.396;2022-10-23T06:31:28;15.60;99.90
19829;DHT22;10075;50.924;4.396;2022-10-23T06:33:56;15.60;99.90
19829;DHT22;10075;50.924;4.396;2022-10-23T06:36:24;15.60;99.90
19829;DHT22;10075;50.924;4.396;2022-10-23T06:38:51;15.60;99.90
19829;DHT22;10075;50.924;4.396;2022-10-23T06:41:19;15.60;99.90
19829;DHT22;10075;50.924;4.396;2022-10-23T06:43:47;15.60;99.90
19829;DHT22;10075;50.924;4.396;2022-10-23T06:46:17;15.60;99.90
19829;DHT22;10075;50.924;4.396;2022-10-23T06:48:44;15.60;99.90
19829;DHT22;10075;50.924;4.396;2022-10-23T06:51:13;15.60;99.90
19829;DHT22;10075;50.924;4.396;2022-10-23T06:53:41;15.60;99.90
19829;DHT22;10075;50.924;4.396;2022-10-23T06:56:09;15.70;99.90
19829;DHT22;10075;50.924;4.396;2022-10-23T06:58:38;15.80;99.90
19829;DHT22;10075;50.924;4.396;2022-10-23T07:01:06;15.80;99.90
19829;DHT22;10075;50.924;4.396;2022-10-23T07:03:35;15.90;99.90
19829;DHT22;10075;50.924;4.396;2022-10-23T07:06:02;15.90;99.90
19829;DHT22;10075;50.924;4.396;2022-10-23T07:08:30;15.90;99.90
19829;DHT22;10075;50.924;4.396;2022-10-23T07:11:01;16.00;99.90
19829;DHT22;10075;50.924;4.396;2022-10-23T07:13:28;16.00;99.90
19829;DHT22;10075;50.924;4.396;2022-10-23T07:15:55;16.10;99.90
19829;DHT22;10075;50.924;4.396;2022-10-23T07:18:22;16.20;99.90
19829;DHT22;10075;50.924;4.396;2022-10-23T07:20:56;16.20;99.90
19829;DHT22;10075;50.924;4.396;2022-10-23T07:23:23;16.30;99.90
19829;DHT22;10075;50.924;4.396;2022-10-23T07:25:50;16.50;99.90
19829;DHT22;10075;50.924;4.396;2022-10-23T07:28:17;16.50;99.90
19829;DHT22;10075;50.924;4.396;2022-10-23T07:30:44;16.50;99.90
19829;DHT22;10075;50.924;4.396;2022-10-23T07:33:11;16.50;99.90
19829;DHT22;10075;50.924;4.396;2022-10-23T07:35:38;16.50;99.90
19829;DHT22;10075;50.924;4.396;2022-10-23T07:38:07;16.60;99.90
19829;DHT22;10075;50.924;4.396;2022-10-23T07:40:34;16.50;99.90
19829;DHT22;10075;50.924;4.396;2022-10-23T07:43:01;16.60;99.90
19829;DHT22;10075;50.924;4.396;2022-10-23T07:45:31;16.60;99.90
19829;DHT22;10075;50.924;4.396;2022-10-23T07:47:58;16.60;99.90
19829;DHT22;10075;50.924;4.396;2022-10-23T07:50:25;16.70;99.90
19829;DHT22;10075;50.924;4.396;2022-10-23T07:52:52;16.70;99.90
19829;DHT22;10075;50.924;4.396;2022-10-23T07:55:20;16.70;99.90
19829;DHT22;10075;50.924;4.396;2022-10-23T07:57:47;16.80;99.90
19829;DHT22;10075;50.924;4.396;2022-10-23T08:00:14;16.80;99.90
19829;DHT22;10075;50.924;4.396;2022-10-23T08:02:41;16.90;99.90
19829;DHT22;10075;50.924;4.396;2022-10-23T08:05:08;17.00;99.90
19829;DHT22;10075;50.924;4.396;2022-10-23T08:07:35;17.10;99.90
19829;DHT22;10075;50.924;4.396;2022-10-23T08:10:03;17.10;99.90
19829;DHT22;10075;50.924;4.396;2022-10-23T08:12:31;17.20;99.90
19829;DHT22;10075;50.924;4.396;2022-10-23T08:14:58;17.30;99.90
19829;DHT22;10075;50.924;4.396;2022-10-23T08:17:26;17.20;99.90
19829;DHT22;10075;50.924;4.396;2022-10-23T08:19:53;17.30;99.90
19829;DHT22;10075;50.924;4.396;2022-10-23T08:22:20;17.30;99.90
19829;DHT22;10075;50.924;4.396;2022-10-23T08:24:47;17.40;99.90
19829;DHT22;10075;50.924;4.396;2022-10-23T08:27:14;17.40;99.90
19829;DHT22;10075;50.924;4.396;2022-10-23T08:29:42;17.30;99.90
19829;DHT22;10075;50.924;4.396;2022-10-23T08:32:09;17.20;99.90
19829;DHT22;10075;50.924;4.396;2022-10-23T08:34:36;17.40;99.90
19829;DHT22;10075;50.924;4.396;2022-10-23T08:37:04;17.40;99.90
19829;DHT22;10075;50.924;4.396;2022-10-23T08:39:31;17.50;99.90
19829;DHT22;10075;50.924;4.396;2022-10-23T08:41:58;17.50;99.90
19829;DHT22;10075;50.924;4.396;2022-10-23T08:44:29;17.40;99.90
19829;DHT22;10075;50.924;4.396;2022-10-23T08:47:05;17.50;99.90
19829;DHT22;10075;50.924;4.396;2022-10-23T08:49:42;17.50;99.90
19829;DHT22;10075;50.924;4.396;2022-10-23T08:52:15;17.60;99.90
19829;DHT22;10075;50.924;4.396;2022-10-23T08:55:05;17.70;99.90
19829;DHT22;10075;50.924;4.396;2022-10-23T08:57:40;17.90;99.90
19829;DHT22;10075;50.924;4.396;2022-10-23T09:00:13;17.90;99.90
19829;DHT22;10075;50.924;4.396;2022-10-23T09:02:44;18.00;99.90
19829;DHT22;10075;50.924;4.396;2022-10-23T09:05:16;18.00;99.90
19829;DHT22;10075;50.924;4.396;2022-10-23T09:08:00;18.10;99.90
19829;DHT22;10075;50.924;4.396;2022-10-23T09:10:46;18.10;99.90
19829;DHT22;10075;50.924;4.396;2022-10-23T09:16:17;18.00;99.90
19829;DHT22;10075;50.924;4.396;2022-10-23T09:18:49;18.00;99.90
19829;DHT22;10075;50.924;4.396;2022-10-23T09:21:16;18.00;99.90
19829;DHT22;10075;50.924;4.396;2022-10-23T09:23:43;18.10;99.90
19829;DHT22;10075;50.924;4.396;2022-10-23T09:26:13;18.20;99.90
19829;DHT22;10075;50.924;4.396;2022-10-23T09:28:46;18.40;99.90
19829;DHT22;10075;50.924;4.396;2022-10-23T09:31:14;18.50;99.90
19829;DHT22;10075;50.924;4.396;2022-10-23T09:33:41;18.50;99.90
19829;DHT22;10075;50.924;4.396;2022-10-23T09:36:21;18.60;99.90
19829;DHT22;10075;50.924;4.396;2022-10-23T09:38:52;18.60;99.90
19829;DHT22;10075;50.924;4.396;2022-10-23T09:41:23;18.70;99.90
19829;DHT22;10075;50.924;4.396;2022-10-23T09:44:00;18.80;99.90
19829;DHT22;10075;50.924;4.396;2022-10-23T09:46:36;18.90;99.90
19829;DHT22;10075;50.924;4.396;2022-10-23T09:49:03;19.00;99.90
19829;DHT22;10075;50.924;4.396;2022-10-23T09:51:33;19.00;99.90
19829;DHT22;10075;50.924;4.396;2022-10-23T09:54:00;19.10;99.90
19829;DHT22;10075;50.924;4.396;2022-10-23T09:56:30;19.20;99.90
19829;DHT22;10075;50.924;4.396;2022-10-23T09:59:00;19.30;99.90
19829;DHT22;10075;50.924;4.396;2022-10-23T10:01:29;19.40;99.90
19829;DHT22;10075;50.924;4.396;2022-10-23T10:03:57;19.50;99.90
19829;DHT22;10075;50.924;4.396;2022-10-23T10:06:26;19.60;99.90
19829;DHT22;10075;50.924;4.396;2022-10-23T10:08:56;19.60;99.90
19829;DHT22;10075;50.924;4.396;2022-10-23T10:11:31;19.70;99.90
19829;DHT22;10075;50.924;4.396;2022-10-23T10:14:17;19.80;99.90
19829;DHT22;10075;50.924;4.396;2022-10-23T10:16:51;19.80;99.90
19829;DHT22;10075;50.924;4.396;2022-10-23T10:19:33;19.90;99.90
19829;DHT22;10075;50.924;4.396;2022-10-23T10:22:07;20.00;99.90
19829;DHT22;10075;50.924;4.396;2022-10-23T10:24:46;20.10;99.90
19829;DHT22;10075;50.924;4.396;2022-10-23T10:27:25;20.10;99.90
19829;DHT22;10075;50.924;4.396;2022-10-23T10:30:02;20.10;99.90
19829;DHT22;10075;50.924;4.396;2022-10-23T10:32:37;20.10;99.90
19829;DHT22;10075;50.924;4.396;2022-10-23T10:35:34;20.00;99.90
19829;DHT22;10075;50.924;4.396;2022-10-23T10:38:13;20.10;99.90
19829;DHT22;10075;50.924;4.396;2022-10-23T10:40:50;20.20;99.90
19829;DHT22;10075;50.924;4.396;2022-10-23T10:43:35;20.20;99.90
19829;DHT22;10075;50.924;4.396;2022-10-23T10:46:14;20.40;99.90
19829;DHT22;10075;50.924;4.396;2022-10-23T10:48:49;20.40;99.90
19829;DHT22;10075;50.924;4.396;2022-10-23T10:51:23;20.40;99.90
19829;DHT22;10075;50.924;4.396;2022-10-23T10:54:07;20.50;99.90
19829;DHT22;10075;50.924;4.396;2022-10-23T10:56:41;20.60;99.90
19829;DHT22;10075;50.924;4.396;2022-10-23T10:59:15;20.50;99.90
19829;DHT22;10075;50.924;4.396;2022-10-23T11:01:46;20.60;99.90
19829;DHT22;10075;50.924;4.396;2022-10-23T11:04:24;20.60;99.90
19829;DHT22;10075;50.924;4.396;2022-10-23T11:06:55;20.60;99.90
19829;DHT22;10075;50.924;4.396;2022-10-23T11:09:26;20.60;99.90
19829;DHT22;10075;50.924;4.396;2022-10-23T11:11:55;20.70;99.90
19829;DHT22;10075;50.924;4.396;2022-10-23T11:14:23;20.70;99.90
19829;DHT22;10075;50.924;4.396;2022-10-23T11:16:52;20.70;99.90
19829;DHT22;10075;50.924;4.396;2022-10-23T11:19:23;20.70;99.90
19829;DHT22;10075;50.924;4.396;2022-10-23T11:21:58;20.70;99.90
19829;DHT22;10075;50.924;4.396;2022-10-23T11:24:52;20.90;99.90
19829;DHT22;10075;50.924;4.396;2022-10-23T11:30:21;20.90;99.90
19829;DHT22;10075;50.924;4.396;2022-10-23T11:36:10;21.00;99.90
19829;DHT22;10075;50.924;4.396;2022-10-23T11:38:41;21.10;99.90
19829;DHT22;10075;50.924;4.396;2022-10-23T11:41:17;21.10;99.90
19829;DHT22;10075;50.924;4.396;2022-10-23T11:43:51;21.30;99.90
19829;DHT22;10075;50.924;4.396;2022-10-23T11:46:34;21.50;99.90
19829;DHT22;10075;50.924;4.396;2022-10-23T11:49:02;21.60;99.90
19829;DHT22;10075;50.924;4.396;2022-10-23T11:51:32;21.50;99.90
19829;DHT22;10075;50.924;4.396;2022-10-23T11:54:17;21.50;99.90
19829;DHT22;10075;50.924;4.396;2022-10-23T11:56:52;21.50;99.90
19829;DHT22;10075;50.924;4.396;2022-10-23T11:59:26;21.50;99.90
19829;DHT22;10075;50.924;4.396;2022-10-23T12:01:55;21.60;99.90
19829;DHT22;10075;50.924;4.396;2022-10-23T12:04:25;21.60;99.90
19829;DHT22;10075;50.924;4.396;2022-10-23T12:06:56;21.60;99.90
19829;DHT22;10075;50.924;4.396;2022-10-23T12:09:28;21.70;99.90
19829;DHT22;10075;50.924;4.396;2022-10-23T12:12:25;21.80;99.90
19829;DHT22;10075;50.924;4.396;2022-10-23T12:15:07;21.80;99.90
19829;DHT22;10075;50.924;4.396;2022-10-23T12:17:37;21.90;99.90
19829;DHT22;10075;50.924;4.396;2022-10-23T12:20:28;22.00;99.90
19829;DHT22;10075;50.924;4.396;2022-10-23T12:23:12;22.00;99.90
19829;DHT22;10075;50.924;4.396;2022-10-23T12:25:52;22.10;99.90
19829;DHT22;10075;50.924;4.396;2022-10-23T12:28:31;22.20;99.90
19829;DHT22;10075;50.924;4.396;2022-10-23T12:31:10;22.10;99.90
19829;DHT22;10075;50.924;4.396;2022-10-23T12:33:45;22.10;99.90
19829;DHT22;10075;50.924;4.396;2022-10-23T12:36:39;22.20;99.90
19829;DHT22;10075;50.924;4.396;2022-10-23T12:39:25;22.30;99.90
19829;DHT22;10075;50.924;4.396;2022-10-23T12:41:53;22.40;99.90
19829;DHT22;10075;50.924;4.396;2022-10-23T12:44:20;22.50;99.90
19829;DHT22;10075;50.924;4.396;2022-10-23T12:46:53;22.50;99.90
19829;DHT22;10075;50.924;4.396;2022-10-23T12:49:23;22.50;99.90
19829;DHT22;10075;50.924;4.396;2022-10-23T12:51:58;22.60;99.90
19829;DHT22;10075;50.924;4.396;2022-10-23T12:54:26;22.50;99.90
19829;DHT22;10075;50.924;4.396;2022-10-23T12:56:53;22.60;99.90
19829;DHT22;10075;50.924;4.396;2022-10-23T12:59:23;22.70;99.90
19829;DHT22;10075;50.924;4.396;2022-10-23T13:01:53;22.80;99.90
19829;DHT22;10075;50.924;4.396;2022-10-23T13:04:26;22.90;99.90
19829;DHT22;10075;50.924;4.396;2022-10-23T13:06:55;22.90;99.90
19829;DHT22;10075;50.924;4.396;2022-10-23T13:09:27;23.00;99.90
19829;DHT22;10075;50.924;4.396;2022-10-23T13:11:55;23.00;99.90
19829;DHT22;10075;50.924;4.396;2022-10-23T13:14:32;23.00;99.90
19829;DHT22;10075;50.924;4.396;2022-10-23T13:17:04;23.10;99.90
19829;DHT22;10075;50.924;4.396;2022-10-23T13:19:32;23.00;99.90
19829;DHT22;10075;50.924;4.396;2022-10-23T13:22:00;23.20;99.90
19829;DHT22;10075;50.924;4.396;2022-10-23T13:24:29;23.10;99.90
19829;DHT22;10075;50.924;4.396;2022-10-23T13:26:57;23.00;99.90
19829;DHT22;10075;50.924;4.396;2022-10-23T13:29:26;23.00;99.90
19829;DHT22;10075;50.924;4.396;2022-10-23T13:31:55;23.00;99.90
19829;DHT22;10075;50.924;4.396;2022-10-23T13:34:25;23.10;99.90
19829;DHT22;10075;50.924;4.396;2022-10-23T13:36:59;23.00;99.90
19829;DHT22;10075;50.924;4.396;2022-10-23T13:39:30;23.00;99.90
19829;DHT22;10075;50.924;4.396;2022-10-23T13:42:01;22.90;99.90
19829;DHT22;10075;50.924;4.396;2022-10-23T13:44:31;22.90;99.90
19829;DHT22;10075;50.924;4.396;2022-10-23T13:47:02;22.90;99.90
19829;DHT22;10075;50.924;4.396;2022-10-23T13:49:31;22.80;99.90
19829;DHT22;10075;50.924;4.396;2022-10-23T13:51:57;22.70;99.90
19829;DHT22;10075;50.924;4.396;2022-10-23T13:54:26;22.70;99.90
19829;DHT22;10075;50.924;4.396;2022-10-23T13:56:54;22.70;99.90
19829;DHT22;10075;50.924;4.396;2022-10-23T13:59:21;22.60;99.90
19829;DHT22;10075;50.924;4.396;2022-10-23T14:01:49;22.50;99.90
19829;DHT22;10075;50.924;4.396;2022-10-23T14:04:17;22.40;99.90
19829;DHT22;10075;50.924;4.396;2022-10-23T14:06:46;22.40;99.90
19829;DHT22;10075;50.924;4.396;2022-10-23T14:09:15;22.40;99.90
19829;DHT22;10075;50.924;4.396;2022-10-23T14:11:43;22.40;99.90
19829;DHT22;10075;50.924;4.396;2022-10-23T14:14:10;22.40;99.90
19829;DHT22;10075;50.924;4.396;2022-10-23T14:16:38;22.40;99.90
19829;DHT22;10075;50.924;4.396;2022-10-23T14:19:05;22.30;99.90
19829;DHT22;10075;50.924;4.396;2022-10-23T14:21:33;22.40;99.90
19829;DHT22;10075;50.924;4.396;2022-10-23T14:24:01;22.40;99.90
19829;DHT22;10075;50.924;4.396;2022-10-23T14:26:28;22.40;99.90
19829;DHT22;10075;50.924;4.396;2022-10-23T14:29:00;22.50;99.90
19829;DHT22;10075;50.924;4.396;2022-10-23T14:31:27;22.50;99.90
19829;DHT22;10075;50.924;4.396;2022-10-23T14:33:55;22.60;99.90
19829;DHT22;10075;50.924;4.396;2022-10-23T14:36:23;22.60;99.90
19829;DHT22;10075;50.924;4.396;2022-10-23T14:38:54;22.60;99.90
19829;DHT22;10075;50.924;4.396;2022-10-23T14:41:25;22.60;99.90
19829;DHT22;10075;50.924;4.396;2022-10-23T14:43:53;22.50;99.90
19829;DHT22;10075;50.924;4.396;2022-10-23T14:46:22;22.50;99.90
19829;DHT22;10075;50.924;4.396;2022-10-23T14:48:50;22.30;99.90
19829;DHT22;10075;50.924;4.396;2022-10-23T14:51:19;22.30;99.90
19829;DHT22;10075;50.924;4.396;2022-10-23T14:53:47;22.20;99.90
19829;DHT22;10075;50.924;4.396;2022-10-23T14:56:14;22.10;99.90
19829;DHT22;10075;50.924;4.396;2022-10-23T14:58:43;22.20;99.90
19829;DHT22;10075;50.924;4.396;2022-10-23T15:01:10;22.10;99.90
19829;DHT22;10075;50.924;4.396;2022-10-23T15:03:37;22.10;99.90
19829;DHT22;10075;50.924;4.396;2022-10-23T15:06:05;22.10;99.90
19829;DHT22;10075;50.924;4.396;2022-10-23T15:08:33;21.90;99.90
19829;DHT22;10075;50.924;4.396;2022-10-23T15:11:01;21.80;99.90
19829;DHT22;10075;50.924;4.396;2022-10-23T15:13:29;21.80;99.90
19829;DHT22;10075;50.924;4.396;2022-10-23T15:16:05;21.70;99.90
19829;DHT22;10075;50.924;4.396;2022-10-23T15:18:34;21.60;99.90
19829;DHT22;10075;50.924;4.396;2022-10-23T15:21:02;21.60;99.90
19829;DHT22;10075;50.924;4.396;2022-10-23T15:23:30;21.60;99.90
19829;DHT22;10075;50.924;4.396;2022-10-23T15:26:00;21.50;99.90
19829;DHT22;10075;50.924;4.396;2022-10-23T15:28:28;21.50;99.90
19829;DHT22;10075;50.924;4.396;2022-10-23T15:30:55;21.50;99.90
19829;DHT22;10075;50.924;4.396;2022-10-23T15:33:24;21.60;99.90
19829;DHT22;10075;50.924;4.396;2022-10-23T15:35:52;21.50;99.90
19829;DHT22;10075;50.924;4.396;2022-10-23T15:38:19;21.50;99.90
19829;DHT22;10075;50.924;4.396;2022-10-23T15:40:47;21.50;99.90
19829;DHT22;10075;50.924;4.396;2022-10-23T15:43:15;21.40;99.90
19829;DHT22;10075;50.924;4.396;2022-10-23T15:45:43;21.40;99.90
19829;DHT22;10075;50.924;4.396;2022-10-23T16:14:50;19.60;99.90
19829;DHT22;10075;50.924;4.396;2022-10-23T16:17:17;19.60;99.90
19829;DHT22;10075;50.924;4.396;2022-10-23T16:19:45;19.70;99.90
19829;DHT22;10075;50.924;4.396;2022-10-23T16:22:12;20.00;99.90
19829;DHT22;10075;50.924;4.396;2022-10-23T16:24:40;20.20;99.90
19829;DHT22;10075;50.924;4.396;2022-10-23T16:27:07;20.40;99.90